Terminal Aerodrome Forecast
Issued by NWS

Home | Current Version | Previous Version | Text Only | Print | Product List | Glossary On
Versions: 1 2 3 4 5 6 7 8 9 10 11 12 13 14 15 16
000
FTUS41 KPHI 100500
TAFMIV
TAF
KMIV 100537Z 1006/1106 VRB04KT P6SM SCT015 BKN100
      TEMPO 1006/1010 4SM BR BKN015 OVC100
     FM101000 VRB03KT 4SM BR SCT015 BKN100
     FM101200 VRB03KT P6SM SCT035 BKN100
     FM101600 12006KT P6SM SCT045
      TEMPO 1019/1023 SHRA OVC045
     FM110000 VRB04KT P6SM SCT045 BKN100=

USA.gov is the U.S. government's official web portal to all federal, state and local government web resources and services.